createdAt,value
2022-09-07T00:01:41.990Z,1.60
2022-09-07T00:06:43.539Z,1.63
2022-09-07T00:11:45.206Z,1.98
2022-09-07T00:16:46.722Z,1.80
2022-09-07T00:21:48.320Z,1.30
2022-09-07T00:26:49.910Z,1.42
2022-09-07T00:31:51.504Z,1.50
2022-09-07T00:36:53.062Z,1.55
2022-09-07T00:41:54.570Z,1.80
2022-09-07T00:46:56.350Z,2.92
2022-09-07T00:52:03.142Z,2.20
2022-09-07T00:57:05.494Z,1.98
2022-09-07T01:02:08.148Z,1.77
2022-09-07T01:07:09.906Z,1.38
2022-09-07T01:12:11.448Z,1.40
2022-09-07T01:17:41.969Z,1.30
2022-09-07T01:23:04.388Z,1.35
2022-09-07T01:28:22.716Z,2.40
2022-09-07T01:33:32.513Z,3.45
2022-09-07T01:38:36.784Z,4.53
2022-09-07T01:44:03.383Z,4.40
2022-09-07T01:49:17.574Z,3.55
2022-09-07T01:54:27.624Z,2.80
2022-09-07T01:59:45.935Z,2.55
2022-09-07T02:04:55.480Z,2.00
2022-09-07T02:10:10.692Z,1.58
2022-09-07T02:15:20.966Z,1.38
2022-09-07T02:20:31.451Z,2.27
2022-09-07T02:25:45.730Z,1.92
2022-09-07T02:30:47.479Z,3.05
2022-09-07T02:35:49.117Z,2.58
2022-09-07T02:40:55.174Z,3.55
2022-09-07T02:46:15.328Z,2.60
2022-09-07T02:51:22.692Z,2.37
2022-09-07T02:56:46.065Z,2.55
2022-09-07T03:01:59.619Z,3.50
2022-09-07T03:07:35.779Z,3.53
2022-09-07T03:12:46.063Z,4.85
2022-09-07T03:17:48.354Z,6.13
2022-09-07T03:22:51.665Z,6.75
2022-09-07T03:27:53.278Z,6.03
2022-09-07T03:32:54.761Z,6.85
2022-09-07T03:37:56.259Z,7.75
2022-09-07T03:42:57.686Z,7.93
2022-09-07T03:47:59.101Z,6.75
2022-09-07T03:53:00.589Z,9.68
2022-09-07T03:58:02.014Z,9.68
2022-09-07T04:03:03.520Z,11.05
2022-09-07T04:08:05.036Z,11.73
2022-09-07T04:13:07.296Z,9.95
2022-09-07T04:18:08.853Z,11.95
2022-09-07T04:23:10.402Z,11.18
2022-09-07T04:28:11.859Z,9.13
2022-09-07T04:33:14.486Z,12.88
2022-09-07T04:38:16.582Z,11.00
2022-09-07T04:43:18.095Z,11.02
2022-09-07T04:48:19.535Z,11.65
2022-09-07T04:53:20.965Z,12.93
2022-09-07T04:58:22.438Z,13.20
2022-09-07T05:03:23.897Z,13.40
2022-09-07T05:08:25.335Z,13.45
2022-09-07T05:13:28.972Z,12.52
2022-09-07T05:18:30.480Z,12.80
2022-09-07T05:23:31.929Z,12.38
2022-09-07T05:28:34.835Z,11.82
2022-09-07T05:38:59.193Z,11.38
2022-09-07T05:49:22.172Z,11.45
2022-09-07T05:54:23.722Z,11.88
2022-09-07T05:59:25.190Z,12.77
2022-09-07T06:04:26.615Z,11.90
2022-09-07T06:09:30.515Z,12.02
2022-09-07T06:14:33.558Z,11.60
2022-09-07T06:19:35.007Z,11.15
2022-09-07T06:24:36.432Z,12.18
2022-09-07T06:29:37.883Z,11.55
2022-09-07T06:34:39.316Z,10.88
2022-09-07T06:39:40.875Z,11.95
2022-09-07T06:44:42.396Z,11.77
2022-09-07T06:49:43.828Z,11.98
2022-09-07T06:55:00.990Z,12.27
2022-09-07T07:00:03.378Z,11.93
2022-09-07T07:05:05.151Z,10.40
2022-09-07T07:10:06.993Z,9.80
2022-09-07T07:15:09.014Z,9.73
2022-09-07T07:20:10.662Z,8.50
2022-09-07T07:25:12.115Z,8.07
2022-09-07T07:30:17.729Z,8.82
2022-09-07T07:35:19.210Z,7.72
2022-09-07T07:40:23.551Z,7.72
2022-09-07T07:50:58.574Z,6.50
2022-09-07T07:56:00.868Z,5.15
2022-09-07T08:01:05.297Z,5.22
2022-09-07T08:06:09.041Z,5.75
2022-09-07T08:11:13.064Z,5.28
2022-09-07T08:16:15.097Z,5.22
2022-09-07T08:21:16.881Z,5.40
2022-09-07T08:26:18.233Z,5.38
2022-09-07T08:31:19.630Z,4.85
2022-09-07T08:36:21.529Z,5.40
2022-09-07T08:41:31.942Z,5.30
2022-09-07T08:46:38.613Z,5.22
2022-09-07T08:51:47.461Z,5.38
2022-09-07T09:06:10.831Z,5.85
2022-09-07T09:07:52.609Z,5.18
2022-09-07T09:13:09.454Z,5.60
2022-09-07T09:18:35.089Z,6.35
2022-09-07T09:23:44.608Z,6.30
2022-09-07T09:28:45.969Z,6.80
2022-09-07T09:34:05.706Z,6.53
2022-09-07T09:39:37.106Z,7.15
2022-09-07T09:44:39.463Z,7.13
2022-09-07T09:49:40.959Z,6.72
2022-09-07T09:54:44.657Z,6.80
2022-09-07T10:00:05.547Z,7.53
2022-09-07T10:05:30.243Z,6.25
2022-09-07T10:10:32.153Z,6.28
2022-09-07T10:15:40.522Z,6.88
2022-09-07T10:20:42.552Z,8.80
2022-09-07T10:25:47.468Z,9.23
2022-09-07T10:31:00.975Z,10.90
2022-09-07T10:36:23.658Z,9.20
2022-09-07T10:41:46.864Z,9.88
2022-09-07T10:47:09.304Z,9.00
2022-09-07T10:52:38.722Z,8.82
2022-09-07T10:57:58.031Z,8.60
2022-09-07T11:03:40.891Z,10.30
2022-09-07T11:09:21.068Z,8.48
2022-09-07T11:14:25.411Z,8.40
2022-09-07T11:19:37.882Z,8.00
2022-09-07T11:30:27.266Z,8.80
2022-09-07T11:35:44.720Z,8.00
2022-09-07T11:40:58.515Z,9.32
2022-09-07T11:46:24.872Z,8.65
2022-09-07T11:51:53.638Z,10.68
2022-09-07T11:57:36.959Z,11.15
2022-09-07T12:03:02.780Z,9.05
2022-09-07T12:08:17.778Z,7.25
2022-09-07T12:13:42.395Z,7.95
2022-09-07T12:18:43.695Z,7.25
2022-09-07T12:23:46.359Z,6.05
2022-09-07T12:28:50.721Z,6.82
2022-09-07T12:34:38.263Z,6.97
2022-09-07T12:39:43.802Z,7.13
2022-09-07T12:44:45.685Z,5.35
2022-09-07T12:50:10.126Z,5.82
2022-09-07T12:55:28.121Z,5.00
2022-09-07T13:00:50.877Z,6.72
2022-09-07T13:06:07.324Z,9.10
2022-09-07T13:11:20.767Z,9.45
2022-09-07T13:22:30.164Z,5.40
2022-09-07T13:27:43.518Z,4.25
2022-09-07T13:38:13.842Z,3.45
2022-09-07T13:43:19.634Z,3.92
2022-09-07T13:48:36.001Z,2.75
2022-09-07T13:53:55.938Z,2.45
2022-09-07T13:58:57.433Z,2.87
2022-09-07T14:04:06.508Z,3.00
2022-09-07T14:09:22.199Z,3.70
2022-09-07T14:14:26.718Z,2.38
2022-09-07T14:19:39.620Z,2.03
2022-09-07T14:24:54.708Z,1.90
2022-09-07T14:29:56.086Z,2.40
2022-09-07T14:34:58.157Z,1.60
2022-09-07T14:40:00.723Z,1.90
2022-09-07T14:45:20.904Z,1.75
2022-09-07T14:50:34.731Z,1.70
2022-09-07T14:55:42.468Z,1.70
2022-09-07T15:00:46.290Z,1.40
2022-09-07T15:05:48.796Z,1.48
2022-09-07T15:16:34.999Z,1.30
2022-09-07T15:21:39.753Z,0.98
2022-09-07T15:32:09.322Z,0.85
2022-09-07T15:47:53.809Z,0.90
2022-09-07T15:52:55.393Z,0.80
2022-09-07T15:58:10.568Z,1.08
2022-09-07T16:03:12.512Z,0.90
2022-09-07T16:13:35.925Z,1.00
2022-09-07T16:18:39.113Z,1.02
2022-09-07T16:23:44.492Z,1.10
2022-09-07T16:28:48.634Z,1.00
2022-09-07T16:33:50.459Z,1.77
2022-09-07T16:39:01.630Z,1.58
2022-09-07T16:44:03.241Z,1.70
2022-09-07T16:49:06.950Z,1.83
2022-09-07T16:54:11.667Z,1.60
2022-09-07T16:59:20.037Z,1.42
2022-09-07T17:04:21.551Z,1.38
2022-09-07T17:09:26.644Z,1.40
2022-09-07T17:14:28.661Z,1.55
2022-09-07T17:19:30.462Z,1.40
2022-09-07T17:24:32.554Z,1.38
2022-09-07T17:29:37.029Z,1.85
2022-09-07T17:34:38.853Z,1.42
2022-09-07T17:39:40.256Z,1.50
2022-09-07T17:44:41.835Z,1.67
2022-09-07T17:49:43.262Z,1.88
2022-09-07T17:54:44.643Z,2.05
2022-09-07T18:05:07.753Z,2.45
2022-09-07T18:10:09.467Z,2.50
2022-09-07T18:15:11.054Z,2.08
2022-09-07T18:20:12.443Z,2.28
2022-09-07T18:25:13.878Z,2.25
2022-09-07T18:30:15.789Z,2.10
2022-09-07T18:35:17.219Z,1.92
2022-09-07T18:40:21.568Z,2.53
2022-09-07T18:45:30.449Z,2.42
2022-09-07T18:50:32.687Z,2.40
2022-09-07T18:55:34.169Z,3.50
2022-09-07T19:00:35.705Z,3.10
2022-09-07T19:05:53.238Z,2.53
2022-09-07T19:10:54.832Z,2.83
2022-09-07T19:16:06.380Z,2.25
2022-09-07T19:21:13.504Z,3.72
2022-09-07T19:26:17.618Z,2.50
2022-09-07T19:31:19.465Z,2.50
2022-09-07T19:36:21.121Z,3.00
2022-09-07T19:41:22.923Z,2.83
2022-09-07T19:46:25.118Z,2.95
2022-09-07T19:51:26.580Z,3.00
2022-09-07T19:56:28.095Z,2.80
2022-09-07T20:01:29.707Z,2.67
2022-09-07T20:06:32.755Z,3.33
2022-09-07T20:11:35.368Z,2.97
2022-09-07T20:16:38.445Z,3.63
2022-09-07T20:21:40.007Z,3.13
2022-09-07T20:26:41.621Z,3.22
2022-09-07T20:31:43.947Z,2.70
2022-09-07T20:36:45.336Z,3.08
2022-09-07T20:41:47.273Z,3.00
2022-09-07T20:46:48.799Z,3.17
2022-09-07T20:51:50.599Z,3.38
2022-09-07T20:56:51.931Z,3.63
2022-09-07T21:01:53.326Z,3.63
2022-09-07T21:06:54.703Z,3.35
2022-09-07T21:11:57.225Z,3.00
2022-09-07T21:16:58.687Z,2.75
2022-09-07T21:22:00.039Z,3.20
2022-09-07T21:27:01.441Z,2.65
2022-09-07T21:32:03.186Z,2.47
2022-09-07T21:37:04.542Z,2.70
2022-09-07T21:42:05.995Z,2.47
2022-09-07T21:47:07.441Z,3.13
2022-09-07T21:52:08.836Z,2.50
2022-09-07T21:57:10.667Z,2.63
2022-09-07T22:02:12.149Z,2.90
2022-09-07T22:07:13.561Z,3.00
2022-09-07T22:12:14.925Z,2.67
2022-09-07T22:17:16.977Z,2.95
2022-09-07T22:22:18.405Z,2.72
2022-09-07T22:27:19.776Z,2.80
2022-09-07T22:32:21.151Z,3.25
2022-09-07T22:37:22.631Z,3.00
2022-09-07T22:42:24.509Z,2.83
2022-09-07T22:47:25.995Z,2.85
2022-09-07T22:52:27.359Z,2.58
2022-09-07T22:57:28.726Z,2.88
2022-09-07T23:02:30.166Z,2.70
2022-09-07T23:07:31.494Z,3.00
2022-09-07T23:12:33.026Z,3.40
2022-09-07T23:17:34.367Z,3.25
2022-09-07T23:22:35.943Z,3.55
2022-09-07T23:27:37.321Z,4.63
2022-09-07T23:32:38.687Z,4.95
2022-09-07T23:37:40.045Z,5.57
2022-09-07T23:42:41.385Z,5.63
2022-09-07T23:47:42.727Z,6.25
2022-09-07T23:52:44.195Z,5.82
2022-09-07T23:57:45.519Z,6.25
